Time;durP1;ratioP1;P1;durP2;ratioP2;P2;SDS_P1;SDS_P2;PMS_P1;PMS_P2;Temp;Humidity;BMP_temperature;BMP_pressure;BME280_temperature;BME280_humidity;BME280_pressure;Samples;Min_cycle;Max_cycle;Signal;HPM_P1;HPM_P2
2022/07/25 00:01:17;;;;;;;3.75;3.33;;;25.20;96.80;;;;;;4096416;28;20067;-68
2022/07/25 00:03:17;;;;;;;5.35;3.72;;;25.10;96.70;;;;;;4097838;28;20221;-68
2022/07/25 00:05:18;;;;;;;4.10;3.13;;;25.10;97.20;;;;;;4096802;28;20039;-67
2022/07/25 00:07:19;;;;;;;5.38;3.33;;;25.10;97.00;;;;;;4097895;28;20032;-68
2022/07/25 00:09:19;;;;;;;4.20;3.40;;;25.10;96.80;;;;;;4097148;28;20031;-67
2022/07/25 00:11:20;;;;;;;3.50;3.15;;;25.10;97.10;;;;;;4096506;28;20023;-68
2022/07/25 00:13:20;;;;;;;3.90;3.28;;;25.10;96.90;;;;;;4097251;28;20023;-67
2022/07/25 00:15:21;;;;;;;5.10;3.72;;;25.10;97.00;;;;;;4081047;29;20411;-67
2022/07/25 00:17:22;;;;;;;4.07;3.60;;;25.00;97.20;;;;;;4097531;28;20078;-67
2022/07/25 00:19:22;;;;;;;6.20;4.30;;;25.00;97.30;;;;;;4096533;28;20046;-67
2022/07/25 00:21:23;;;;;;;4.47;3.90;;;25.00;97.50;;;;;;4095937;28;20035;-67
2022/07/25 00:23:24;;;;;;;4.38;3.88;;;24.90;97.00;;;;;;4097300;28;20043;-67
2022/07/25 00:25:24;;;;;;;7.68;4.55;;;24.90;97.10;;;;;;4096917;28;20047;-67
2022/07/25 00:27:25;;;;;;;5.07;4.03;;;24.90;96.80;;;;;;4097551;28;20035;-67
2022/07/25 00:29:25;;;;;;;4.43;3.80;;;24.80;97.30;;;;;;4096402;28;20042;-67
2022/07/25 00:31:26;;;;;;;4.82;4.22;;;24.80;97.10;;;;;;4095968;28;20043;-67
2022/07/25 00:33:27;;;;;;;4.55;3.95;;;24.80;96.60;;;;;;4097142;28;20031;-68
2022/07/25 00:35:27;;;;;;;4.55;3.95;;;24.80;96.90;;;;;;4096798;28;20035;-68
2022/07/25 00:37:28;;;;;;;5.57;4.07;;;24.70;96.60;;;;;;4096764;28;20510;-67
2022/07/25 00:39:29;;;;;;;4.47;3.78;;;24.70;96.50;;;;;;4096327;28;20047;-67
2022/07/25 00:41:30;;;;;;;4.30;3.70;;;24.70;96.80;;;;;;4095984;28;20031;-67
2022/07/25 00:43:31;;;;;;;10.75;4.57;;;24.60;97.40;;;;;;4097006;28;20487;-68
2022/07/25 00:45:31;;;;;;;4.35;3.80;;;24.60;97.40;;;;;;4096575;28;20163;-68
2022/07/25 00:47:32;;;;;;;5.25;4.07;;;24.60;98.00;;;;;;4097176;28;20097;-67
2022/07/25 00:49:32;;;;;;;4.32;3.67;;;24.60;98.00;;;;;;4096363;28;20423;-67
2022/07/25 00:51:33;;;;;;;5.13;3.83;;;24.50;98.00;;;;;;4095566;28;20094;-67
2022/07/25 00:53:35;;;;;;;4.47;3.80;;;24.60;98.80;;;;;;4097100;28;20034;-67
2022/07/25 00:55:36;;;;;;;4.80;3.90;;;24.60;98.70;;;;;;4096461;28;20201;-67
2022/07/25 00:57:36;;;;;;;4.70;3.80;;;24.50;99.00;;;;;;4096199;28;20320;-67
2022/07/25 00:59:37;;;;;;;6.18;4.32;;;24.50;98.70;;;;;;4095869;28;20105;-67
2022/07/25 01:01:38;;;;;;;4.47;3.72;;;24.50;98.60;;;;;;4095500;28;20047;-67
2022/07/25 01:03:39;;;;;;;4.93;4.15;;;24.50;98.30;;;;;;4096967;28;20074;-67
2022/07/25 01:05:40;;;;;;;5.63;4.20;;;24.50;98.50;;;;;;4096400;28;20043;-67
2022/07/25 01:07:40;;;;;;;4.70;4.05;;;24.50;98.50;;;;;;4096765;28;20042;-67
2022/07/25 01:09:41;;;;;;;8.40;4.30;;;24.50;98.50;;;;;;4095812;28;20043;-68
2022/07/25 01:11:42;;;;;;;5.63;4.78;;;24.50;98.50;;;;;;4095122;28;20524;-68
2022/07/25 01:13:42;;;;;;;6.03;4.38;;;24.50;98.30;;;;;;4097026;28;20040;-68
2022/07/25 01:15:43;;;;;;;7.20;4.65;;;24.50;98.30;;;;;;4095896;28;20070;-67
2022/07/25 01:17:44;;;;;;;5.43;4.82;;;24.40;97.90;;;;;;4096464;28;20035;-68
2022/07/25 01:19:46;;;;;;;6.55;4.90;;;24.50;98.30;;;;;;4095960;28;20104;-67
2022/07/25 01:21:46;;;;;;;4.70;4.18;;;24.50;98.40;;;;;;4095492;28;20047;-67
2022/07/25 01:23:47;;;;;;;7.40;4.88;;;24.50;98.50;;;;;;4096411;28;20082;-68
2022/07/25 01:25:47;;;;;;;5.15;4.45;;;24.50;98.30;;;;;;4096141;28;20035;-68
2022/07/25 01:27:50;;;;;;;5.35;4.53;;;24.50;97.90;;;;;;4096540;28;20082;-68
2022/07/25 01:29:50;;;;;;;5.35;4.22;;;24.40;97.70;;;;;;4095582;28;20046;-67
2022/07/25 01:31:51;;;;;;;5.68;4.57;;;24.40;97.90;;;;;;4095135;28;20111;-68
2022/07/25 01:33:51;;;;;;;5.93;4.35;;;24.50;97.90;;;;;;4096404;28;20039;-67
2022/07/25 01:35:52;;;;;;;6.25;4.43;;;24.50;97.80;;;;;;4096070;28;20062;-68
2022/07/25 01:37:53;;;;;;;5.07;4.22;;;24.40;97.90;;;;;;4096583;28;20034;-67
2022/07/25 01:39:53;;;;;;;6.15;4.72;;;24.40;97.70;;;;;;4095227;28;20046;-67
2022/07/25 01:41:54;;;;;;;5.72;4.72;;;24.40;97.50;;;;;;4095484;28;20085;-68
2022/07/25 01:43:54;;;;;;;5.78;5.00;;;24.40;97.50;;;;;;4096705;28;20118;-67
2022/07/25 01:45:55;;;;;;;6.47;4.72;;;24.40;97.70;;;;;;4095629;28;20035;-68
2022/07/25 01:47:56;;;;;;;5.72;4.35;;;24.40;97.70;;;;;;4096398;28;20511;-67
2022/07/25 01:49:56;;;;;;;4.85;4.15;;;24.40;97.70;;;;;;4095447;28;20478;-67
2022/07/25 01:51:57;;;;;;;6.90;4.47;;;24.40;97.30;;;;;;4095282;28;20050;-67
2022/07/25 01:53:58;;;;;;;6.90;4.70;;;24.30;97.50;;;;;;4096209;28;20038;-67
2022/07/25 01:55:59;;;;;;;6.13;5.00;;;24.30;97.40;;;;;;4095658;28;20114;-67
2022/07/25 01:58:00;;;;;;;4.80;4.30;;;24.30;97.40;;;;;;4096382;28;20039;-67
2022/07/25 02:00:00;;;;;;;4.90;4.38;;;24.30;97.60;;;;;;4095271;28;20050;-67
2022/07/25 02:02:01;;;;;;;6.22;5.05;;;24.30;97.50;;;;;;4094594;28;20051;-68
2022/07/25 02:04:02;;;;;;;6.20;4.57;;;24.30;97.70;;;;;;4096222;28;20039;-68
2022/07/25 02:06:06;;;;;;;6.50;4.93;;;24.30;97.50;;;;;;4095788;28;20031;-68
2022/07/25 02:08:06;;;;;;;7.72;4.82;;;24.30;97.30;;;;;;4097563;28;20038;-68
2022/07/25 02:10:08;;;;;;;6.85;4.75;;;24.30;97.60;;;;;;4097667;28;20118;-68
2022/07/25 02:12:08;;;;;;;5.97;4.80;;;24.20;97.60;;;;;;4098595;28;20039;-68
2022/07/25 02:14:09;;;;;;;5.40;4.43;;;24.20;97.40;;;;;;4099514;28;20038;-68
2022/07/25 02:16:10;;;;;;;7.10;5.35;;;24.20;97.00;;;;;;4098695;28;20506;-68
2022/07/25 02:18:11;;;;;;;5.43;4.15;;;24.20;97.60;;;;;;4098861;28;20027;-67
2022/07/25 02:20:11;;;;;;;5.20;4.68;;;24.20;98.10;;;;;;4097395;28;20094;-67
2022/07/25 02:22:12;;;;;;;5.82;5.00;;;24.20;97.80;;;;;;4098518;28;20118;-68
2022/07/25 02:24:13;;;;;;;7.28;4.80;;;24.20;98.20;;;;;;4098799;28;20086;-68
2022/07/25 02:26:14;;;;;;;7.13;4.95;;;24.20;98.20;;;;;;4097809;28;20391;-67
2022/07/25 02:28:14;;;;;;;5.18;4.40;;;24.20;98.00;;;;;;4099243;28;20435;-67
2022/07/25 02:30:15;;;;;;;7.30;4.88;;;24.20;97.70;;;;;;4097337;28;20043;-68
2022/07/25 02:32:15;;;;;;;8.23;5.38;;;24.20;97.80;;;;;;4098880;28;20043;-68
2022/07/25 02:34:16;;;;;;;8.25;4.78;;;24.30;97.70;;;;;;4098940;28;20046;-68
2022/07/25 02:36:17;;;;;;;5.63;4.88;;;24.20;97.50;;;;;;4098305;28;20031;-68
2022/07/25 02:38:18;;;;;;;5.57;4.80;;;24.20;97.70;;;;;;4099072;28;20058;-67
2022/07/25 02:40:19;;;;;;;5.57;4.47;;;24.20;97.70;;;;;;4087432;29;20047;-67
2022/07/25 02:42:20;;;;;;;6.13;4.95;;;24.20;98.10;;;;;;4098888;28;20035;-67
2022/07/25 02:44:20;;;;;;;6.50;5.00;;;24.20;97.70;;;;;;4098876;28;20054;-68
2022/07/25 02:46:21;;;;;;;5.68;4.72;;;24.10;97.80;;;;;;4098432;28;20051;-67
2022/07/25 02:48:22;;;;;;;6.03;4.40;;;24.10;97.80;;;;;;4098947;28;20042;-67
2022/07/25 02:50:22;;;;;;;6.93;4.82;;;24.10;98.00;;;;;;4096816;28;20058;-67
2022/07/25 02:52:23;;;;;;;6.18;4.93;;;24.00;98.30;;;;;;4098859;28;20423;-67
2022/07/25 02:54:24;;;;;;;7.18;5.15;;;24.00;98.10;;;;;;4095974;29;20102;-68
2022/07/25 02:56:25;;;;;;;7.38;5.20;;;24.00;97.90;;;;;;4097770;28;20035;-67
2022/07/25 02:58:26;;;;;;;6.83;4.57;;;24.00;98.00;;;;;;4098638;28;20031;-67
2022/07/25 03:00:27;;;;;;;7.82;4.85;;;24.00;98.30;;;;;;4096684;28;20043;-67
2022/07/25 03:02:28;;;;;;;6.68;4.70;;;24.00;98.10;;;;;;4098663;28;20373;-67
2022/07/25 03:04:30;;;;;;;7.88;4.80;;;24.00;98.10;;;;;;4098620;28;20062;-68
2022/07/25 03:06:30;;;;;;;7.47;5.40;;;24.00;98.30;;;;;;4098259;28;20549;-67
2022/07/25 03:08:31;;;;;;;7.15;4.97;;;24.00;98.00;;;;;;4098378;28;20119;-67
2022/07/25 03:10:33;;;;;;;7.47;5.40;;;23.90;98.00;;;;;;4096542;28;20097;-68
2022/07/25 03:12:33;;;;;;;7.47;5.83;;;23.90;97.90;;;;;;4098224;28;20042;-68
2022/07/25 03:14:34;;;;;;;6.22;4.75;;;23.80;98.00;;;;;;4098376;28;20039;-68
2022/07/25 03:16:35;;;;;;;6.65;5.10;;;23.80;97.70;;;;;;4097721;28;20038;-67
2022/07/25 03:18:36;;;;;;;6.45;4.80;;;23.80;97.90;;;;;;4097779;28;20035;-67
2022/07/25 03:20:36;;;;;;;7.47;5.15;;;23.80;97.70;;;;;;4095554;28;20086;-68
2022/07/25 03:22:37;;;;;;;7.82;5.25;;;23.70;98.00;;;;;;4098356;28;20495;-67
2022/07/25 03:24:38;;;;;;;5.63;4.63;;;23.80;98.20;;;;;;4098314;28;20035;-67
2022/07/25 03:26:38;;;;;;;7.10;4.65;;;23.70;97.90;;;;;;4097936;28;20157;-67
2022/07/25 03:28:39;;;;;;;8.02;4.53;;;23.70;98.20;;;;;;4097668;28;20046;-67
2022/07/25 03:30:39;;;;;;;6.38;4.80;;;23.80;98.30;;;;;;4096744;28;20036;-67
2022/07/25 03:32:40;;;;;;;6.30;4.72;;;23.70;98.00;;;;;;4098014;28;20368;-67
2022/07/25 03:34:41;;;;;;;6.30;4.95;;;23.80;98.10;;;;;;4098260;28;20123;-67
2022/07/25 03:36:41;;;;;;;6.60;4.93;;;23.80;98.30;;;;;;4097444;28;20031;-67
2022/07/25 03:38:42;;;;;;;6.95;4.60;;;23.80;98.00;;;;;;4097616;28;20051;-67
2022/07/25 03:40:42;;;;;;;5.60;4.25;;;23.80;98.10;;;;;;4096237;28;20047;-68
2022/07/25 03:42:43;;;;;;;7.07;5.15;;;23.80;97.80;;;;;;4097819;28;20078;-68
2022/07/25 03:44:44;;;;;;;7.97;4.65;;;23.80;98.00;;;;;;4097979;28;20487;-67
2022/07/25 03:46:45;;;;;;;9.07;4.30;;;23.80;97.90;;;;;;4097740;28;20062;-68
2022/07/25 03:48:45;;;;;;;8.45;5.10;;;23.80;97.90;;;;;;4097223;28;20039;-68
2022/07/25 03:50:46;;;;;;;7.18;4.88;;;23.80;98.00;;;;;;4095976;28;20046;-67
2022/07/25 03:52:46;;;;;;;6.75;4.72;;;23.80;98.20;;;;;;4097608;28;20032;-67
2022/07/25 03:54:47;;;;;;;6.45;4.95;;;23.80;98.20;;;;;;4097786;28;20073;-68
2022/07/25 03:56:49;;;;;;;7.05;4.88;;;23.80;98.10;;;;;;4096877;28;20042;-68
2022/07/25 03:58:50;;;;;;;6.72;5.18;;;23.80;98.00;;;;;;4097153;28;20039;-67
2022/07/25 04:00:50;;;;;;;5.53;4.28;;;23.70;98.00;;;;;;4095747;28;20634;-67
2022/07/25 04:02:51;;;;;;;6.05;4.90;;;23.70;97.90;;;;;;4097167;28;20110;-68
2022/07/25 04:04:52;;;;;;;6.57;4.40;;;23.80;98.00;;;;;;4097619;28;20041;-68
2022/07/25 04:06:52;;;;;;;7.13;5.07;;;23.70;97.80;;;;;;4096884;28;20031;-67
2022/07/25 04:08:54;;;;;;;6.97;4.82;;;23.70;97.80;;;;;;4093470;28;20035;-67
2022/07/25 04:10:55;;;;;;;8.70;5.13;;;23.70;98.30;;;;;;4080639;29;20043;-67
2022/07/25 04:12:55;;;;;;;6.80;4.78;;;23.70;98.00;;;;;;4095544;28;20043;-67
2022/07/25 04:14:57;;;;;;;6.47;4.88;;;23.70;98.20;;;;;;4096576;28;20035;-67
2022/07/25 04:16:57;;;;;;;7.72;5.30;;;23.70;98.10;;;;;;4097009;28;20566;-67
2022/07/25 04:18:58;;;;;;;5.80;4.82;;;23.70;98.20;;;;;;4096760;28;20046;-67
2022/07/25 04:20:58;;;;;;;6.85;4.90;;;23.70;98.20;;;;;;4096540;28;20035;-68
2022/07/25 04:22:59;;;;;;;6.03;4.32;;;23.60;97.50;;;;;;4095879;28;20032;-68
2022/07/25 04:25:00;;;;;;;7.43;5.07;;;23.60;97.80;;;;;;4097544;28;20024;-67
2022/07/25 04:27:01;;;;;;;9.15;5.93;;;23.60;98.10;;;;;;4099419;28;20046;-67
2022/07/25 04:29:02;;;;;;;7.88;5.32;;;23.60;98.00;;;;;;4095069;28;20032;-69
2022/07/25 04:31:03;;;;;;;9.05;4.78;;;23.50;98.30;;;;;;4094731;28;20471;-67
2022/07/25 04:33:04;;;;;;;7.68;5.07;;;23.50;97.90;;;;;;4097262;28;20078;-67
2022/07/25 04:35:05;;;;;;;7.47;5.28;;;23.50;97.80;;;;;;4097170;28;20032;-71
2022/07/25 04:37:05;;;;;;;7.45;5.53;;;23.50;98.00;;;;;;4095386;29;20024;-68
2022/07/25 04:39:06;;;;;;;6.57;5.00;;;23.40;98.40;;;;;;4094474;28;20039;-67
2022/07/25 04:41:06;;;;;;;9.00;5.43;;;23.40;98.30;;;;;;4095297;28;20039;-67
2022/07/25 04:43:07;;;;;;;7.88;5.03;;;23.40;98.70;;;;;;4097360;28;20028;-68
2022/07/25 04:45:08;;;;;;;6.47;4.70;;;23.40;98.10;;;;;;4095685;28;20027;-68
2022/07/25 04:47:09;;;;;;;5.45;4.60;;;23.30;98.10;;;;;;4097045;28;20069;-67
2022/07/25 04:49:09;;;;;;;7.97;4.88;;;23.40;97.50;;;;;;4096411;28;20027;-67
2022/07/25 04:51:10;;;;;;;5.13;4.20;;;23.30;98.10;;;;;;4095822;28;20020;-67
2022/07/25 04:53:11;;;;;;;6.80;4.75;;;23.30;98.00;;;;;;4095186;28;20066;-68
2022/07/25 04:55:11;;;;;;;7.72;5.00;;;23.30;97.70;;;;;;4095741;28;20038;-67
2022/07/25 04:57:12;;;;;;;6.22;4.70;;;23.30;97.90;;;;;;4097006;28;20028;-67
2022/07/25 04:59:12;;;;;;;6.07;4.47;;;23.30;97.20;;;;;;4095640;28;20040;-67
2022/07/25 05:01:13;;;;;;;5.65;4.85;;;23.30;97.60;;;;;;4095270;28;20086;-67
2022/07/25 05:03:14;;;;;;;5.45;4.40;;;23.30;97.90;;;;;;4096529;28;20031;-67
2022/07/25 05:05:14;;;;;;;8.65;4.93;;;23.40;97.60;;;;;;4095314;28;20031;-68
2022/07/25 05:07:15;;;;;;;6.80;5.40;;;23.40;98.20;;;;;;4096060;28;20423;-68
2022/07/25 05:09:16;;;;;;;6.68;5.07;;;23.40;97.60;;;;;;4095137;28;20028;-67
2022/07/25 05:11:16;;;;;;;7.82;4.75;;;23.40;97.60;;;;;;4094879;28;20058;-68
2022/07/25 05:13:17;;;;;;;5.63;4.80;;;23.40;97.40;;;;;;4091245;28;20459;-68
2022/07/25 05:15:18;;;;;;;6.55;4.95;;;23.40;97.40;;;;;;4093620;28;20058;-67
2022/07/25 05:17:18;;;;;;;7.75;5.20;;;23.40;97.00;;;;;;4093534;28;20419;-68
2022/07/25 05:19:19;;;;;;;7.78;4.78;;;23.40;97.40;;;;;;4093966;28;20475;-67
2022/07/25 05:21:19;;;;;;;5.53;4.28;;;23.50;97.00;;;;;;4080234;29;20054;-67
2022/07/25 05:23:21;;;;;;;8.50;5.28;;;23.50;97.20;;;;;;4093368;28;20082;-67
2022/07/25 05:25:21;;;;;;;5.78;4.70;;;23.50;98.00;;;;;;4095567;28;20034;-67
2022/07/25 05:27:22;;;;;;;6.43;4.07;;;23.50;97.10;;;;;;4094580;28;20058;-68
2022/07/25 05:29:22;;;;;;;8.02;4.88;;;23.50;97.10;;;;;;4094475;28;20479;-67
2022/07/25 05:31:23;;;;;;;7.07;4.72;;;23.50;97.00;;;;;;4094414;28;20085;-68
2022/07/25 05:33:25;;;;;;;7.43;4.60;;;23.50;97.20;;;;;;4093546;28;20027;-67
2022/07/25 05:35:26;;;;;;;7.75;5.13;;;23.50;97.20;;;;;;4090750;29;20537;-68
2022/07/25 05:37:26;;;;;;;6.82;4.72;;;23.50;97.10;;;;;;4095260;28;20024;-68
2022/07/25 05:39:27;;;;;;;7.13;4.07;;;23.50;97.00;;;;;;4097485;28;20032;-67
2022/07/25 05:41:27;;;;;;;7.25;4.40;;;23.60;96.70;;;;;;4095922;28;20070;-67
2022/07/25 05:43:28;;;;;;;9.20;4.85;;;23.60;97.20;;;;;;4094752;28;20383;-67
2022/07/25 05:45:30;;;;;;;6.43;4.65;;;23.60;96.90;;;;;;4095554;28;20039;-67
2022/07/25 05:47:30;;;;;;;8.02;4.75;;;23.50;96.90;;;;;;4095457;29;20046;-69
2022/07/25 05:49:31;;;;;;;5.53;4.10;;;23.50;96.60;;;;;;4095738;28;20054;-68
2022/07/25 05:51:31;;;;;;;6.35;4.88;;;23.50;96.90;;;;;;4094881;28;20145;-69
2022/07/25 05:53:32;;;;;;;6.22;4.38;;;23.50;96.80;;;;;;4097907;28;20031;-70
2022/07/25 05:55:33;;;;;;;7.55;4.95;;;23.50;96.80;;;;;;4095352;28;20031;-69
2022/07/25 05:57:34;;;;;;;7.20;4.85;;;23.60;97.10;;;;;;4095555;28;20031;-69
2022/07/25 05:59:35;;;;;;;6.10;4.55;;;23.60;96.50;;;;;;4095279;28;20046;-69
2022/07/25 06:01:35;;;;;;;5.32;4.80;;;23.60;96.60;;;;;;4093337;28;20551;-69
2022/07/25 06:03:36;;;;;;;7.45;4.55;;;23.60;96.60;;;;;;4100246;28;20439;-69
2022/07/25 06:05:37;;;;;;;6.55;4.80;;;23.60;96.70;;;;;;4095495;28;20042;-69
2022/07/25 06:07:37;;;;;;;6.47;4.53;;;23.70;96.50;;;;;;4097314;28;20042;-69
2022/07/25 06:09:38;;;;;;;6.53;4.60;;;23.70;96.30;;;;;;4095375;28;20036;-69
2022/07/25 06:11:38;;;;;;;5.68;4.90;;;23.80;96.20;;;;;;4092392;28;20048;-69
2022/07/25 06:13:39;;;;;;;7.25;4.82;;;23.90;96.40;;;;;;4096278;28;20449;-69
2022/07/25 06:15:40;;;;;;;5.68;4.15;;;24.10;95.80;;;;;;4094784;28;20035;-69
2022/07/25 06:17:41;;;;;;;6.40;4.43;;;24.40;96.30;;;;;;4095339;28;20031;-69
2022/07/25 06:19:42;;;;;;;7.22;4.60;;;24.60;95.50;;;;;;4095376;28;20055;-69
2022/07/25 06:21:42;;;;;;;6.28;4.95;;;24.90;94.70;;;;;;4095555;28;20483;-69
2022/07/25 06:23:43;;;;;;;7.43;5.07;;;25.20;94.60;;;;;;4095070;28;20062;-69
2022/07/25 06:25:44;;;;;;;6.90;4.47;;;25.60;93.90;;;;;;4092491;28;20284;-69
2022/07/25 06:27:45;;;;;;;6.97;4.47;;;25.90;93.30;;;;;;4095189;28;20644;-71
2022/07/25 06:29:45;;;;;;;5.55;4.68;;;26.10;92.50;;;;;;4092116;28;20042;-69
2022/07/25 06:31:46;;;;;;;9.02;4.70;;;26.30;92.20;;;;;;4092652;28;20040;-69
2022/07/25 06:33:46;;;;;;;4.43;3.47;;;26.60;92.60;;;;;;4094689;28;20043;-69
2022/07/25 06:35:47;;;;;;;4.63;4.05;;;26.90;92.00;;;;;;4089569;28;20542;-70
2022/07/25 06:37:48;;;;;;;5.10;4.10;;;27.30;91.10;;;;;;4096363;28;20035;-70
2022/07/25 06:39:49;;;;;;;6.65;4.18;;;27.60;91.30;;;;;;4090060;28;20467;-69
2022/07/25 06:41:50;;;;;;;5.18;3.60;;;27.90;90.40;;;;;;4092841;28;20050;-69
2022/07/25 06:43:50;;;;;;;5.15;3.90;;;28.10;90.60;;;;;;4095561;28;20044;-69
2022/07/25 06:45:51;;;;;;;5.68;4.05;;;28.30;89.20;;;;;;4091701;28;20046;-70
2022/07/25 06:47:51;;;;;;;5.22;4.07;;;28.40;89.30;;;;;;4094908;28;20502;-70
2022/07/25 06:49:52;;;;;;;6.32;4.28;;;28.60;88.40;;;;;;4089174;28;20043;-69
2022/07/25 06:51:52;;;;;;;5.93;4.13;;;28.60;87.50;;;;;;4091722;28;20044;-70
2022/07/25 06:53:53;;;;;;;4.68;3.85;;;28.70;87.70;;;;;;4091365;28;20098;-69
2022/07/25 06:55:54;;;;;;;5.43;4.07;;;28.80;87.20;;;;;;4091673;28;20041;-70
2022/07/25 06:57:54;;;;;;;4.97;4.13;;;28.80;87.10;;;;;;4092868;29;20036;-70
2022/07/25 06:59:55;;;;;;;4.55;3.70;;;28.90;87.60;;;;;;4094092;28;20063;-69
2022/07/25 07:01:56;;;;;;;6.90;4.57;;;28.90;86.20;;;;;;4092620;28;20046;-70
2022/07/25 07:03:56;;;;;;;4.70;3.67;;;28.90;85.20;;;;;;4090612;28;20040;-70
2022/07/25 07:05:57;;;;;;;6.50;4.00;;;28.90;86.00;;;;;;4067164;29;20064;-67
2022/07/25 07:07:59;;;;;;;6.10;4.20;;;28.80;86.20;;;;;;4093121;28;20391;-67
2022/07/25 07:09:59;;;;;;;4.22;3.67;;;28.70;85.10;;;;;;4093053;28;20027;-67
2022/07/25 07:12:00;;;;;;;5.50;3.88;;;28.80;86.10;;;;;;4090933;28;20351;-67
2022/07/25 07:14:01;;;;;;;6.00;4.20;;;28.70;85.30;;;;;;4093398;29;20567;-67
2022/07/25 07:16:02;;;;;;;6.10;4.53;;;28.70;85.30;;;;;;4094094;29;20038;-68
2022/07/25 07:18:06;;;;;;;6.65;4.10;;;28.60;84.60;;;;;;4093993;28;20031;-68
2022/07/25 07:20:07;;;;;;;7.15;4.15;;;28.70;87.20;;;;;;4092472;28;20039;-68
2022/07/25 07:22:08;;;;;;;6.40;4.03;;;28.60;86.10;;;;;;4092219;28;20035;-67
2022/07/25 07:24:08;;;;;;;6.97;4.18;;;28.50;86.90;;;;;;4093451;29;20027;-67
2022/07/25 07:26:09;;;;;;;5.45;4.05;;;28.60;86.80;;;;;;4093126;28;20471;-69
2022/07/25 07:28:10;;;;;;;5.45;3.88;;;28.60;88.10;;;;;;4094362;28;20050;-68
2022/07/25 07:30:13;;;;;;;6.93;4.50;;;28.50;86.80;;;;;;4092806;28;20051;-69
2022/07/25 07:32:14;;;;;;;5.60;4.03;;;28.50;88.70;;;;;;4092803;29;20050;-68
2022/07/25 07:34:14;;;;;;;5.22;3.53;;;28.50;87.90;;;;;;4094091;29;20039;-68
2022/07/25 07:36:16;;;;;;;5.28;4.00;;;28.50;89.20;;;;;;4092215;28;20593;-70
2022/07/25 07:38:17;;;;;;;5.53;3.78;;;28.40;88.40;;;;;;4094173;28;20031;-69
2022/07/25 07:40:17;;;;;;;9.05;4.75;;;28.40;88.90;;;;;;4093262;28;20137;-68
2022/07/25 07:42:18;;;;;;;5.38;4.07;;;28.40;88.30;;;;;;4093050;28;20040;-68
2022/07/25 07:44:19;;;;;;;7.13;4.43;;;28.20;89.30;;;;;;4096655;28;20141;-69
2022/07/25 07:46:19;;;;;;;6.82;4.75;;;28.10;90.10;;;;;;4079969;29;20487;-68
2022/07/25 07:48:20;;;;;;;6.57;4.25;;;28.00;90.00;;;;;;4091264;28;20050;-68
2022/07/25 07:50:26;;;;;;;5.68;4.40;;;28.00;89.70;;;;;;4082620;28;20031;-68
2022/07/25 07:52:27;;;;;;;5.72;4.15;;;27.70;90.20;;;;;;4082802;28;20035;-68
2022/07/25 07:56:47;;;;;;;5.80;4.45;;;27.50;88.90;;;;;;4081001;28;20039;-68
2022/07/25 07:58:47;;;;;;;4.53;3.88;;;27.50;90.10;;;;;;4089573;28;20050;-69
2022/07/25 08:00:50;;;;;;;6.93;4.45;;;27.50;88.40;;;;;;4092418;29;20039;-68
2022/07/25 08:02:52;;;;;;;5.15;3.92;;;27.30;89.50;;;;;;4091776;29;20065;-68
2022/07/25 08:04:53;;;;;;;5.90;4.43;;;27.20;89.20;;;;;;4093738;28;20039;-68
2022/07/25 08:06:53;;;;;;;6.70;4.28;;;27.20;90.20;;;;;;4091065;28;20267;-68
2022/07/25 08:08:54;;;;;;;7.13;3.75;;;27.10;90.80;;;;;;4089997;28;20035;-68
2022/07/25 08:10:55;;;;;;;5.50;4.38;;;27.10;90.80;;;;;;4091081;28;23018;-68
2022/07/25 08:12:57;;;;;;;5.05;3.80;;;27.10;90.20;;;;;;4092562;28;20039;-68
2022/07/25 08:14:58;;;;;;;6.32;4.18;;;27.00;91.20;;;;;;4093421;28;20081;-68
2022/07/25 08:16:58;;;;;;;5.57;4.28;;;27.00;90.90;;;;;;4093104;28;20130;-68
2022/07/25 08:18:59;;;;;;;8.15;4.13;;;27.00;91.40;;;;;;4092117;28;20534;-68
2022/07/25 08:21:02;;;;;;;5.53;4.13;;;27.00;91.30;;;;;;4091601;28;20205;-68
2022/07/25 08:23:03;;;;;;;6.15;4.63;;;27.00;90.80;;;;;;4091080;28;20122;-68
2022/07/25 08:25:06;;;;;;;7.10;4.45;;;27.00;90.90;;;;;;4079094;29;20040;-69
2022/07/25 08:27:06;;;;;;;4.47;3.53;;;26.90;91.50;;;;;;4092011;28;20043;-68
2022/07/25 08:29:07;;;;;;;5.78;3.90;;;26.90;90.90;;;;;;4092360;28;20043;-68
2022/07/25 08:31:07;;;;;;;6.40;4.38;;;26.90;91.30;;;;;;4093246;28;20823;-69
2022/07/25 08:33:12;;;;;;;6.38;4.43;;;26.80;91.00;;;;;;4090440;28;20653;-68
2022/07/25 08:35:12;;;;;;;6.32;4.75;;;26.70;91.10;;;;;;4092125;29;20039;-68
2022/07/25 08:37:14;;;;;;;6.57;4.40;;;26.70;91.80;;;;;;4092730;28;20114;-68
2022/07/25 08:39:15;;;;;;;5.75;4.45;;;26.60;92.30;;;;;;4092483;28;20062;-68
2022/07/25 08:41:15;;;;;;;5.60;4.47;;;26.60;91.60;;;;;;4092296;28;20162;-68
2022/07/25 08:43:17;;;;;;;7.72;4.93;;;26.50;91.10;;;;;;4090640;28;20453;-69
2022/07/25 08:45:19;;;;;;;10.68;6.15;;;26.50;91.80;;;;;;4092887;29;20428;-68
2022/07/25 08:47:20;;;;;;;7.45;4.32;;;26.50;91.10;;;;;;4091943;28;20027;-68
2022/07/25 08:49:21;;;;;;;9.93;4.90;;;26.50;92.20;;;;;;4092115;28;20102;-68
2022/07/25 08:51:23;;;;;;;6.90;4.78;;;26.60;91.30;;;;;;4091364;28;20475;-68
2022/07/25 08:53:25;;;;;;;7.37;4.43;;;26.60;90.50;;;;;;4091936;28;20058;-68
2022/07/25 08:55:27;;;;;;;5.30;3.97;;;26.70;91.90;;;;;;4092976;28;20527;-68
2022/07/25 08:57:28;;;;;;;6.47;4.10;;;26.90;91.70;;;;;;4092443;28;20258;-68
2022/07/25 08:59:31;;;;;;;4.93;3.58;;;27.00;90.90;;;;;;4075628;29;20452;-68
2022/07/25 09:01:31;;;;;;;7.03;3.90;;;27.10;89.80;;;;;;4089243;28;20082;-68
2022/07/25 09:03:32;;;;;;;10.88;4.32;;;27.10;90.30;;;;;;4092026;29;20034;-68
2022/07/25 09:05:34;;;;;;;4.25;3.47;;;27.20;88.90;;;;;;4089378;28;20034;-68
2022/07/25 09:07:40;;;;;;;5.15;3.42;;;27.30;91.00;;;;;;4092071;28;20094;-68
2022/07/25 09:09:40;;;;;;;4.10;3.45;;;27.30;87.40;;;;;;4092419;28;20398;-68
2022/07/25 09:11:41;;;;;;;4.68;3.65;;;27.40;88.20;;;;;;4091114;28;20067;-68
2022/07/25 09:13:41;;;;;;;5.20;3.13;;;27.50;87.50;;;;;;4093139;28;20039;-68
2022/07/25 09:15:58;;;;;;;2.53;2.33;;;27.50;87.10;;;;;;4089088;28;21623;-69
2022/07/25 09:18:04;;;;;;;5.47;2.90;;;27.70;88.80;;;;;;4089222;28;20023;-68
2022/07/25 09:20:07;;;;;;;5.15;3.03;;;27.80;88.50;;;;;;4090334;28;20541;-69
2022/07/25 09:22:08;;;;;;;2.92;2.55;;;27.80;86.60;;;;;;4090972;28;20157;-68
2022/07/25 09:24:16;;;;;;;4.90;3.53;;;27.90;85.70;;;;;;4091183;28;20062;-68
2022/07/25 09:26:17;;;;;;;4.25;3.25;;;27.90;85.20;;;;;;4091540;28;20511;-69
2022/07/25 09:28:18;;;;;;;3.38;2.95;;;27.90;85.80;;;;;;4092673;28;20038;-68
2022/07/25 09:30:19;;;;;;;4.28;3.00;;;27.90;86.90;;;;;;4089099;28;20028;-68
2022/07/25 09:32:21;;;;;;;8.05;2.97;;;27.90;88.70;;;;;;4092762;28;20038;-68
2022/07/25 09:34:49;;;;;;;4.03;2.83;;;27.90;85.30;;;;;;4092552;28;20031;-68
2022/07/25 09:36:54;;;;;;;3.90;2.83;;;27.80;88.30;;;;;;4073268;29;20083;-68
2022/07/25 09:38:59;;;;;;;6.25;3.10;;;27.70;86.00;;;;;;4092412;28;20110;-68
2022/07/25 09:41:01;;;;;;;3.35;2.72;;;27.80;85.30;;;;;;4090826;28;20035;-68
2022/07/25 09:43:01;;;;;;;4.78;2.88;;;27.80;85.80;;;;;;4092423;28;20157;-68
2022/07/25 09:45:12;;;;;;;3.55;2.63;;;27.70;83.00;;;;;;4089964;28;20038;-69
2022/07/25 09:47:15;;;;;;;3.30;2.72;;;27.70;84.50;;;;;;4092170;28;20086;-68
2022/07/25 09:49:15;;;;;;;5.45;2.90;;;27.70;85.20;;;;;;4092210;28;20039;-68
2022/07/25 09:51:16;;;;;;;3.15;2.20;;;27.70;85.60;;;;;;4092158;28;20058;-68
2022/07/25 09:53:18;;;;;;;2.85;1.92;;;27.70;85.00;;;;;;4092594;28;20098;-68
2022/07/25 09:55:20;;;;;;;3.65;2.15;;;27.60;83.60;;;;;;4090001;28;20047;-68
2022/07/25 09:57:22;;;;;;;4.13;2.45;;;27.60;84.90;;;;;;4092221;28;20391;-68
2022/07/25 09:59:23;;;;;;;2.75;1.90;;;27.60;84.90;;;;;;4091554;28;20027;-68
2022/07/25 10:01:44;;;;;;;3.65;1.95;;;27.70;84.70;;;;;;4090157;28;20055;-68
2022/07/25 10:03:58;;;;;;;5.53;2.10;;;27.80;84.90;;;;;;4091147;28;20038;-68
2022/07/25 10:06:16;;;;;;;3.17;2.13;;;27.90;84.40;;;;;;4091653;28;20626;-68
2022/07/25 10:08:19;;;;;;;3.75;2.20;;;28.00;87.00;;;;;;4089818;29;20384;-68
2022/07/25 10:10:31;;;;;;;5.10;2.30;;;28.10;82.50;;;;;;4090633;29;20031;-69
2022/07/25 10:12:31;;;;;;;2.58;2.17;;;28.20;82.80;;;;;;4091472;28;20900;-69
2022/07/25 10:14:33;;;;;;;6.75;2.30;;;28.30;81.90;;;;;;4091715;28;20024;-68
2022/07/25 10:16:45;;;;;;;2.90;2.00;;;28.30;81.50;;;;;;4091882;28;20023;-68
2022/07/25 10:18:51;;;;;;;2.25;2.05;;;28.30;80.40;;;;;;4090991;28;20063;-69
2022/07/25 10:21:06;;;;;;;4.00;2.00;;;28.30;81.70;;;;;;4091633;28;20414;-68
2022/07/25 10:23:22;;;;;;;3.92;1.95;;;28.40;82.00;;;;;;4090434;28;20035;-69
2022/07/25 10:25:22;;;;;;;4.07;1.90;;;28.40;82.40;;;;;;4089978;28;20110;-68
2022/07/25 10:27:24;;;;;;;5.30;1.98;;;28.40;81.10;;;;;;4090230;28;20478;-68
2022/07/25 10:29:33;;;;;;;12.38;1.95;;;28.40;81.30;;;;;;4092288;28;20067;-68
2022/07/25 10:31:37;;;;;;;3.53;2.10;;;28.50;80.80;;;;;;4092895;28;20558;-68
2022/07/25 10:33:40;;;;;;;3.78;2.20;;;28.50;80.00;;;;;;4091034;28;20031;-69